sensor_id;sensor_type;location;lat;lon;timestamp;P1;durP1;ratioP1;P2;durP2;ratioP2
63784;SDS011;49927;48.146;11.420;2023-05-19T00:00:35;11.27;;;4.45;;
63784;SDS011;49927;48.146;11.420;2023-05-19T00:03:02;7.15;;;3.88;;
63784;SDS011;49927;48.146;11.420;2023-05-19T00:05:30;8.13;;;4.15;;
63784;SDS011;49927;48.146;11.420;2023-05-19T00:07:57;13.05;;;5.47;;
63784;SDS011;49927;48.146;11.420;2023-05-19T00:10:25;11.13;;;4.80;;
63784;SDS011;49927;48.146;11.420;2023-05-19T00:12:53;9.55;;;5.10;;
63784;SDS011;49927;48.146;11.420;2023-05-19T00:15:20;10.65;;;5.05;;
63784;SDS011;49927;48.146;11.420;2023-05-19T00:17:47;17.65;;;5.20;;
63784;SDS011;49927;48.146;11.420;2023-05-19T00:20:14;10.38;;;4.97;;
63784;SDS011;49927;48.146;11.420;2023-05-19T00:22:41;10.25;;;5.07;;
63784;SDS011;49927;48.146;11.420;2023-05-19T00:25:08;11.85;;;5.05;;
63784;SDS011;49927;48.146;11.420;2023-05-19T00:27:35;16.83;;;5.60;;
63784;SDS011;49927;48.146;11.420;2023-05-19T00:30:04;7.82;;;4.32;;
63784;SDS011;49927;48.146;11.420;2023-05-19T00:32:31;14.77;;;4.57;;
63784;SDS011;49927;48.146;11.420;2023-05-19T00:34:58;10.68;;;5.28;;
63784;SDS011;49927;48.146;11.420;2023-05-19T00:37:25;13.48;;;5.35;;
63784;SDS011;49927;48.146;11.420;2023-05-19T00:39:52;12.32;;;4.50;;
63784;SDS011;49927;48.146;11.420;2023-05-19T00:42:18;12.23;;;5.38;;
63784;SDS011;49927;48.146;11.420;2023-05-19T00:44:46;9.40;;;5.32;;
63784;SDS011;49927;48.146;11.420;2023-05-19T00:47:14;15.35;;;5.38;;
63784;SDS011;49927;48.146;11.420;2023-05-19T00:49:41;20.67;;;7.47;;
63784;SDS011;49927;48.146;11.420;2023-05-19T00:52:07;11.50;;;5.55;;
63784;SDS011;49927;48.146;11.420;2023-05-19T00:54:34;9.95;;;5.28;;
63784;SDS011;49927;48.146;11.420;2023-05-19T00:57:01;8.25;;;4.63;;
63784;SDS011;49927;48.146;11.420;2023-05-19T00:59:28;13.88;;;5.35;;
63784;SDS011;49927;48.146;11.420;2023-05-19T01:01:55;18.48;;;5.72;;
63784;SDS011;49927;48.146;11.420;2023-05-19T01:04:23;12.05;;;5.65;;
63784;SDS011;49927;48.146;11.420;2023-05-19T01:06:50;9.23;;;5.72;;
63784;SDS011;49927;48.146;11.420;2023-05-19T01:09:16;11.50;;;5.72;;
63784;SDS011;49927;48.146;11.420;2023-05-19T01:11:43;10.63;;;5.13;;
63784;SDS011;49927;48.146;11.420;2023-05-19T01:14:10;16.50;;;5.47;;
63784;SDS011;49927;48.146;11.420;2023-05-19T01:16:38;10.57;;;5.05;;
63784;SDS011;49927;48.146;11.420;2023-05-19T01:19:09;11.20;;;4.80;;
63784;SDS011;49927;48.146;11.420;2023-05-19T01:21:50;10.60;;;5.10;;
63784;SDS011;49927;48.146;11.420;2023-05-19T01:27:57;11.05;;;4.75;;
63784;SDS011;49927;48.146;11.420;2023-05-19T01:30:35;13.45;;;5.60;;
63784;SDS011;49927;48.146;11.420;2023-05-19T01:33:03;13.00;;;5.13;;
63784;SDS011;49927;48.146;11.420;2023-05-19T01:35:33;13.38;;;6.43;;
63784;SDS011;49927;48.146;11.420;2023-05-19T01:38:01;10.27;;;5.57;;
63784;SDS011;49927;48.146;11.420;2023-05-19T01:40:29;11.82;;;5.50;;
63784;SDS011;49927;48.146;11.420;2023-05-19T01:42:58;12.00;;;6.25;;
63784;SDS011;49927;48.146;11.420;2023-05-19T01:45:27;10.30;;;4.85;;
63784;SDS011;49927;48.146;11.420;2023-05-19T01:47:56;15.70;;;5.20;;
63784;SDS011;49927;48.146;11.420;2023-05-19T01:50:24;11.13;;;5.63;;
63784;SDS011;49927;48.146;11.420;2023-05-19T01:52:50;11.52;;;5.32;;
63784;SDS011;49927;48.146;11.420;2023-05-19T01:55:17;10.45;;;5.55;;
63784;SDS011;49927;48.146;11.420;2023-05-19T01:57:46;10.85;;;5.55;;
63784;SDS011;49927;48.146;11.420;2023-05-19T02:00:17;11.18;;;5.30;;
63784;SDS011;49927;48.146;11.420;2023-05-19T02:02:52;11.48;;;4.97;;
63784;SDS011;49927;48.146;11.420;2023-05-19T02:10:21;13.02;;;5.85;;
63784;SDS011;49927;48.146;11.420;2023-05-19T02:12:49;13.15;;;5.95;;
63784;SDS011;49927;48.146;11.420;2023-05-19T02:15:20;12.75;;;5.35;;
63784;SDS011;49927;48.146;11.420;2023-05-19T02:17:47;14.57;;;6.13;;
63784;SDS011;49927;48.146;11.420;2023-05-19T02:20:17;16.52;;;6.55;;
63784;SDS011;49927;48.146;11.420;2023-05-19T02:22:43;15.05;;;6.18;;
63784;SDS011;49927;48.146;11.420;2023-05-19T02:25:10;13.77;;;5.63;;
63784;SDS011;49927;48.146;11.420;2023-05-19T02:27:37;16.13;;;6.47;;
63784;SDS011;49927;48.146;11.420;2023-05-19T02:30:05;16.10;;;6.00;;
63784;SDS011;49927;48.146;11.420;2023-05-19T02:32:33;8.90;;;6.03;;
63784;SDS011;49927;48.146;11.420;2023-05-19T02:35:00;16.50;;;6.18;;
63784;SDS011;49927;48.146;11.420;2023-05-19T02:37:28;12.00;;;5.72;;
63784;SDS011;49927;48.146;11.420;2023-05-19T02:39:55;9.48;;;5.20;;
63784;SDS011;49927;48.146;11.420;2023-05-19T02:42:21;11.98;;;5.78;;
63784;SDS011;49927;48.146;11.420;2023-05-19T02:44:48;16.30;;;6.25;;
63784;SDS011;49927;48.146;11.420;2023-05-19T02:47:15;15.50;;;6.82;;
63784;SDS011;49927;48.146;11.420;2023-05-19T02:49:42;11.70;;;5.43;;
63784;SDS011;49927;48.146;11.420;2023-05-19T02:52:08;11.82;;;5.80;;
63784;SDS011;49927;48.146;11.420;2023-05-19T02:54:36;12.73;;;6.07;;
63784;SDS011;49927;48.146;11.420;2023-05-19T02:57:03;11.65;;;7.07;;
63784;SDS011;49927;48.146;11.420;2023-05-19T02:59:30;25.83;;;6.60;;
63784;SDS011;49927;48.146;11.420;2023-05-19T03:01:58;11.82;;;5.90;;
63784;SDS011;49927;48.146;11.420;2023-05-19T03:04:25;14.18;;;5.38;;
63784;SDS011;49927;48.146;11.420;2023-05-19T03:06:52;18.92;;;6.38;;
63784;SDS011;49927;48.146;11.420;2023-05-19T03:09:19;12.73;;;5.07;;
63784;SDS011;49927;48.146;11.420;2023-05-19T03:11:47;11.88;;;6.20;;
63784;SDS011;49927;48.146;11.420;2023-05-19T03:14:14;11.70;;;5.72;;
63784;SDS011;49927;48.146;11.420;2023-05-19T03:16:40;18.63;;;8.07;;
63784;SDS011;49927;48.146;11.420;2023-05-19T03:19:07;16.63;;;6.03;;
63784;SDS011;49927;48.146;11.420;2023-05-19T03:21:34;11.27;;;6.13;;
63784;SDS011;49927;48.146;11.420;2023-05-19T03:24:01;11.60;;;5.82;;
63784;SDS011;49927;48.146;11.420;2023-05-19T03:26:28;12.85;;;5.55;;
63784;SDS011;49927;48.146;11.420;2023-05-19T03:28:56;11.30;;;5.85;;
63784;SDS011;49927;48.146;11.420;2023-05-19T03:31:23;11.88;;;5.72;;
63784;SDS011;49927;48.146;11.420;2023-05-19T03:33:49;13.52;;;6.20;;
63784;SDS011;49927;48.146;11.420;2023-05-19T03:36:16;12.82;;;6.72;;
63784;SDS011;49927;48.146;11.420;2023-05-19T03:38:43;14.90;;;6.70;;
63784;SDS011;49927;48.146;11.420;2023-05-19T03:41:10;12.75;;;5.80;;
63784;SDS011;49927;48.146;11.420;2023-05-19T03:43:36;20.25;;;6.00;;
63784;SDS011;49927;48.146;11.420;2023-05-19T03:46:04;9.18;;;5.43;;
63784;SDS011;49927;48.146;11.420;2023-05-19T03:48:31;15.27;;;6.13;;
63784;SDS011;49927;48.146;11.420;2023-05-19T03:50:58;11.98;;;5.35;;
63784;SDS011;49927;48.146;11.420;2023-05-19T03:53:25;12.73;;;6.13;;
63784;SDS011;49927;48.146;11.420;2023-05-19T03:55:51;16.77;;;6.10;;
63784;SDS011;49927;48.146;11.420;2023-05-19T03:58:18;13.50;;;5.82;;
63784;SDS011;49927;48.146;11.420;2023-05-19T04:00:45;14.73;;;5.93;;
63784;SDS011;49927;48.146;11.420;2023-05-19T04:03:13;12.55;;;5.82;;
63784;SDS011;49927;48.146;11.420;2023-05-19T04:05:40;10.52;;;5.55;;
63784;SDS011;49927;48.146;11.420;2023-05-19T04:08:07;14.98;;;6.25;;
63784;SDS011;49927;48.146;11.420;2023-05-19T04:10:33;14.57;;;6.10;;
63784;SDS011;49927;48.146;11.420;2023-05-19T04:13:00;15.32;;;6.88;;
63784;SDS011;49927;48.146;11.420;2023-05-19T04:15:27;12.80;;;6.63;;
63784;SDS011;49927;48.146;11.420;2023-05-19T04:17:54;11.82;;;5.78;;
63784;SDS011;49927;48.146;11.420;2023-05-19T04:20:22;16.27;;;6.18;;
63784;SDS011;49927;48.146;11.420;2023-05-19T04:22:49;12.80;;;6.35;;
63784;SDS011;49927;48.146;11.420;2023-05-19T04:25:16;11.15;;;5.97;;
63784;SDS011;49927;48.146;11.420;2023-05-19T04:27:42;13.40;;;6.18;;
63784;SDS011;49927;48.146;11.420;2023-05-19T04:30:09;11.68;;;6.28;;
63784;SDS011;49927;48.146;11.420;2023-05-19T04:32:36;13.02;;;5.90;;
63784;SDS011;49927;48.146;11.420;2023-05-19T04:35:04;11.73;;;6.97;;
63784;SDS011;49927;48.146;11.420;2023-05-19T04:37:32;13.15;;;5.85;;
63784;SDS011;49927;48.146;11.420;2023-05-19T04:39:59;9.85;;;5.72;;
63784;SDS011;49927;48.146;11.420;2023-05-19T04:42:25;12.43;;;6.22;;
63784;SDS011;49927;48.146;11.420;2023-05-19T04:44:52;12.48;;;6.15;;
63784;SDS011;49927;48.146;11.420;2023-05-19T04:47:19;10.60;;;5.75;;
63784;SDS011;49927;48.146;11.420;2023-05-19T04:49:45;13.50;;;5.55;;
63784;SDS011;49927;48.146;11.420;2023-05-19T04:52:12;13.60;;;5.90;;
63784;SDS011;49927;48.146;11.420;2023-05-19T04:54:40;16.05;;;6.45;;
63784;SDS011;49927;48.146;11.420;2023-05-19T04:57:07;12.48;;;5.85;;
63784;SDS011;49927;48.146;11.420;2023-05-19T04:59:34;12.50;;;6.40;;
63784;SDS011;49927;48.146;11.420;2023-05-19T05:02:01;12.98;;;6.20;;
63784;SDS011;49927;48.146;11.420;2023-05-19T05:04:28;14.05;;;5.75;;
63784;SDS011;49927;48.146;11.420;2023-05-19T05:06:54;13.10;;;6.30;;
63784;SDS011;49927;48.146;11.420;2023-05-19T05:09:21;14.02;;;5.43;;
63784;SDS011;49927;48.146;11.420;2023-05-19T05:11:50;14.55;;;5.85;;
63784;SDS011;49927;48.146;11.420;2023-05-19T05:14:17;14.27;;;5.97;;
63784;SDS011;49927;48.146;11.420;2023-05-19T05:16:44;13.57;;;6.00;;
63784;SDS011;49927;48.146;11.420;2023-05-19T05:19:11;9.88;;;5.45;;
63784;SDS011;49927;48.146;11.420;2023-05-19T05:21:39;8.75;;;5.65;;
63784;SDS011;49927;48.146;11.420;2023-05-19T05:24:06;11.18;;;6.60;;
63784;SDS011;49927;48.146;11.420;2023-05-19T05:26:34;14.00;;;6.85;;
63784;SDS011;49927;48.146;11.420;2023-05-19T05:29:02;13.80;;;6.22;;
63784;SDS011;49927;48.146;11.420;2023-05-19T05:31:29;12.70;;;5.72;;
63784;SDS011;49927;48.146;11.420;2023-05-19T05:33:56;13.80;;;6.32;;
63784;SDS011;49927;48.146;11.420;2023-05-19T05:36:23;15.15;;;7.53;;
63784;SDS011;49927;48.146;11.420;2023-05-19T05:38:49;19.65;;;6.20;;
63784;SDS011;49927;48.146;11.420;2023-05-19T05:41:16;13.60;;;5.55;;
63784;SDS011;49927;48.146;11.420;2023-05-19T05:43:43;17.90;;;6.15;;
63784;SDS011;49927;48.146;11.420;2023-05-19T05:46:11;12.25;;;6.05;;
63784;SDS011;49927;48.146;11.420;2023-05-19T05:48:38;14.50;;;5.60;;
63784;SDS011;49927;48.146;11.420;2023-05-19T05:51:06;11.55;;;6.10;;
63784;SDS011;49927;48.146;11.420;2023-05-19T05:53:33;11.20;;;5.50;;
63784;SDS011;49927;48.146;11.420;2023-05-19T05:56:02;16.55;;;6.05;;
63784;SDS011;49927;48.146;11.420;2023-05-19T05:58:30;14.18;;;5.70;;
63784;SDS011;49927;48.146;11.420;2023-05-19T06:00:56;15.68;;;6.97;;
63784;SDS011;49927;48.146;11.420;2023-05-19T06:03:24;11.40;;;6.68;;
63784;SDS011;49927;48.146;11.420;2023-05-19T06:05:51;11.80;;;5.72;;
63784;SDS011;49927;48.146;11.420;2023-05-19T06:08:18;11.15;;;5.68;;
63784;SDS011;49927;48.146;11.420;2023-05-19T06:10:45;12.43;;;5.18;;
63784;SDS011;49927;48.146;11.420;2023-05-19T06:13:12;7.70;;;4.68;;
63784;SDS011;49927;48.146;11.420;2023-05-19T06:15:39;11.27;;;5.18;;
63784;SDS011;49927;48.146;11.420;2023-05-19T06:18:06;8.95;;;5.80;;
63784;SDS011;49927;48.146;11.420;2023-05-19T06:20:34;11.00;;;6.40;;
63784;SDS011;49927;48.146;11.420;2023-05-19T06:23:01;11.30;;;5.30;;
63784;SDS011;49927;48.146;11.420;2023-05-19T06:25:28;10.18;;;4.88;;
63784;SDS011;49927;48.146;11.420;2023-05-19T06:27:55;11.95;;;5.30;;
63784;SDS011;49927;48.146;11.420;2023-05-19T06:30:21;12.38;;;6.05;;
63784;SDS011;49927;48.146;11.420;2023-05-19T06:32:48;15.05;;;5.80;;
63784;SDS011;49927;48.146;11.420;2023-05-19T06:35:15;10.27;;;5.25;;
63784;SDS011;49927;48.146;11.420;2023-05-19T06:37:43;8.60;;;5.07;;
63784;SDS011;49927;48.146;11.420;2023-05-19T06:40:10;9.90;;;5.53;;
63784;SDS011;49927;48.146;11.420;2023-05-19T06:42:37;12.27;;;5.35;;
63784;SDS011;49927;48.146;11.420;2023-05-19T06:45:05;12.48;;;5.40;;
63784;SDS011;49927;48.146;11.420;2023-05-19T06:47:32;9.35;;;4.90;;
63784;SDS011;49927;48.146;11.420;2023-05-19T06:49:59;8.93;;;5.35;;
63784;SDS011;49927;48.146;11.420;2023-05-19T06:52:26;11.93;;;5.28;;
63784;SDS011;49927;48.146;11.420;2023-05-19T06:54:54;9.38;;;5.32;;
63784;SDS011;49927;48.146;11.420;2023-05-19T06:57:21;10.43;;;6.25;;
63784;SDS011;49927;48.146;11.420;2023-05-19T06:59:47;7.47;;;5.03;;
63784;SDS011;49927;48.146;11.420;2023-05-19T07:02:14;9.25;;;5.88;;
63784;SDS011;49927;48.146;11.420;2023-05-19T07:04:41;8.10;;;4.95;;
63784;SDS011;49927;48.146;11.420;2023-05-19T07:07:07;15.05;;;4.70;;
63784;SDS011;49927;48.146;11.420;2023-05-19T07:09:34;10.10;;;4.93;;
63784;SDS011;49927;48.146;11.420;2023-05-19T07:12:02;7.57;;;4.63;;
63784;SDS011;49927;48.146;11.420;2023-05-19T07:14:29;6.45;;;4.22;;
63784;SDS011;49927;48.146;11.420;2023-05-19T07:16:56;12.38;;;4.93;;
63784;SDS011;49927;48.146;11.420;2023-05-19T07:19:23;11.00;;;4.40;;
63784;SDS011;49927;48.146;11.420;2023-05-19T07:21:50;8.80;;;4.43;;
63784;SDS011;49927;48.146;11.420;2023-05-19T07:24:16;8.68;;;4.47;;
63784;SDS011;49927;48.146;11.420;2023-05-19T07:26:43;7.65;;;4.13;;
63784;SDS011;49927;48.146;11.420;2023-05-19T07:29:11;6.50;;;4.15;;
63784;SDS011;49927;48.146;11.420;2023-05-19T07:31:38;6.85;;;3.97;;
63784;SDS011;49927;48.146;11.420;2023-05-19T07:34:05;5.55;;;3.90;;
63784;SDS011;49927;48.146;11.420;2023-05-19T07:36:31;8.60;;;4.43;;
63784;SDS011;49927;48.146;11.420;2023-05-19T07:38:58;6.70;;;4.75;;
63784;SDS011;49927;48.146;11.420;2023-05-19T07:41:25;8.85;;;4.07;;
63784;SDS011;49927;48.146;11.420;2023-05-19T07:43:52;6.70;;;4.40;;
63784;SDS011;49927;48.146;11.420;2023-05-19T07:46:20;11.20;;;4.45;;
63784;SDS011;49927;48.146;11.420;2023-05-19T07:48:47;9.52;;;4.13;;
63784;SDS011;49927;48.146;11.420;2023-05-19T07:51:13;8.40;;;4.30;;
63784;SDS011;49927;48.146;11.420;2023-05-19T07:53:40;11.50;;;4.30;;
63784;SDS011;49927;48.146;11.420;2023-05-19T07:56:07;6.82;;;4.63;;
63784;SDS011;49927;48.146;11.420;2023-05-19T07:58:34;7.70;;;3.55;;
63784;SDS011;49927;48.146;11.420;2023-05-19T08:01:00;5.82;;;4.32;;
63784;SDS011;49927;48.146;11.420;2023-05-19T08:03:29;7.65;;;4.40;;
63784;SDS011;49927;48.146;11.420;2023-05-19T08:05:56;11.07;;;5.43;;
63784;SDS011;49927;48.146;11.420;2023-05-19T08:08:23;8.10;;;5.05;;
63784;SDS011;49927;48.146;11.420;2023-05-19T08:10:49;10.90;;;5.75;;
63784;SDS011;49927;48.146;11.420;2023-05-19T08:13:16;9.20;;;5.60;;
63784;SDS011;49927;48.146;11.420;2023-05-19T08:15:43;11.00;;;5.57;;
63784;SDS011;49927;48.146;11.420;2023-05-19T08:18:10;10.82;;;6.28;;
63784;SDS011;49927;48.146;11.420;2023-05-19T08:20:38;13.30;;;6.50;;
63784;SDS011;49927;48.146;11.420;2023-05-19T08:23:04;9.35;;;5.53;;
63784;SDS011;49927;48.146;11.420;2023-05-19T08:25:31;7.78;;;5.22;;
63784;SDS011;49927;48.146;11.420;2023-05-19T08:27:58;10.25;;;6.00;;
63784;SDS011;49927;48.146;11.420;2023-05-19T08:30:25;12.57;;;6.57;;
63784;SDS011;49927;48.146;11.420;2023-05-19T08:32:51;10.32;;;5.57;;
63784;SDS011;49927;48.146;11.420;2023-05-19T08:35:18;7.05;;;5.32;;
63784;SDS011;49927;48.146;11.420;2023-05-19T08:37:47;9.82;;;6.03;;
63784;SDS011;49927;48.146;11.420;2023-05-19T08:40:15;8.77;;;6.03;;
63784;SDS011;49927;48.146;11.420;2023-05-19T08:42:42;10.45;;;5.68;;
63784;SDS011;49927;48.146;11.420;2023-05-19T08:45:10;7.93;;;5.57;;
63784;SDS011;49927;48.146;11.420;2023-05-19T08:47:37;8.70;;;6.10;;
63784;SDS011;49927;48.146;11.420;2023-05-19T08:50:04;9.63;;;6.20;;
63784;SDS011;49927;48.146;11.420;2023-05-19T08:52:34;10.38;;;6.93;;
63784;SDS011;49927;48.146;11.420;2023-05-19T08:55:30;12.20;;;6.60;;
63784;SDS011;49927;48.146;11.420;2023-05-19T08:58:00;10.32;;;5.88;;
63784;SDS011;49927;48.146;11.420;2023-05-19T09:00:27;12.18;;;6.35;;
63784;SDS011;49927;48.146;11.420;2023-05-19T09:02:55;12.25;;;6.93;;
63784;SDS011;49927;48.146;11.420;2023-05-19T09:05:36;12.73;;;6.03;;
63784;SDS011;49927;48.146;11.420;2023-05-19T09:08:03;10.10;;;6.05;;
63784;SDS011;49927;48.146;11.420;2023-05-19T09:10:32;12.15;;;6.45;;
63784;SDS011;49927;48.146;11.420;2023-05-19T09:12:59;10.20;;;7.22;;
63784;SDS011;49927;48.146;11.420;2023-05-19T09:15:26;8.43;;;5.25;;
63784;SDS011;49927;48.146;11.420;2023-05-19T09:18:02;10.80;;;6.07;;
63784;SDS011;49927;48.146;11.420;2023-05-19T09:20:31;10.63;;;5.90;;
63784;SDS011;49927;48.146;11.420;2023-05-19T09:22:58;12.85;;;6.50;;
63784;SDS011;49927;48.146;11.420;2023-05-19T09:25:25;8.77;;;5.45;;
63784;SDS011;49927;48.146;11.420;2023-05-19T09:27:54;12.55;;;6.00;;
63784;SDS011;49927;48.146;11.420;2023-05-19T09:30:20;10.25;;;5.55;;
63784;SDS011;49927;48.146;11.420;2023-05-19T09:32:49;10.93;;;5.57;;
63784;SDS011;49927;48.146;11.420;2023-05-19T09:35:16;7.00;;;5.32;;
63784;SDS011;49927;48.146;11.420;2023-05-19T09:37:43;9.60;;;5.93;;
63784;SDS011;49927;48.146;11.420;2023-05-19T09:40:12;9.82;;;4.95;;
63784;SDS011;49927;48.146;11.420;2023-05-19T09:42:40;8.30;;;5.80;;
63784;SDS011;49927;48.146;11.420;2023-05-19T09:45:09;9.30;;;5.97;;
63784;SDS011;49927;48.146;11.420;2023-05-19T09:47:36;8.13;;;6.43;;
63784;SDS011;49927;48.146;11.420;2023-05-19T09:50:04;13.95;;;5.78;;
63784;SDS011;49927;48.146;11.420;2023-05-19T09:52:33;8.35;;;5.90;;
63784;SDS011;49927;48.146;11.420;2023-05-19T09:55:00;7.60;;;5.93;;
63784;SDS011;49927;48.146;11.420;2023-05-19T09:57:31;10.73;;;5.70;;
63784;SDS011;49927;48.146;11.420;2023-05-19T09:59:59;9.15;;;6.30;;
63784;SDS011;49927;48.146;11.420;2023-05-19T10:02:27;12.80;;;6.10;;
63784;SDS011;49927;48.146;11.420;2023-05-19T10:04:55;9.73;;;6.35;;
63784;SDS011;49927;48.146;11.420;2023-05-19T10:07:22;12.77;;;6.07;;
63784;SDS011;49927;48.146;11.420;2023-05-19T10:09:49;10.40;;;6.80;;
63784;SDS011;49927;48.146;11.420;2023-05-19T10:12:17;11.30;;;6.13;;
63784;SDS011;49927;48.146;11.420;2023-05-19T10:14:44;9.15;;;6.88;;
63784;SDS011;49927;48.146;11.420;2023-05-19T10:17:11;9.77;;;6.03;;
63784;SDS011;49927;48.146;11.420;2023-05-19T10:19:39;7.85;;;5.35;;
63784;SDS011;49927;48.146;11.420;2023-05-19T10:22:06;12.63;;;6.55;;
63784;SDS011;49927;48.146;11.420;2023-05-19T10:24:33;7.68;;;6.43;;
63784;SDS011;49927;48.146;11.420;2023-05-19T10:27:02;8.55;;;6.03;;
63784;SDS011;49927;48.146;11.420;2023-05-19T10:29:36;9.18;;;6.78;;
63784;SDS011;49927;48.146;11.420;2023-05-19T10:32:06;10.25;;;6.10;;
63784;SDS011;49927;48.146;11.420;2023-05-19T10:34:50;9.77;;;6.53;;
63784;SDS011;49927;48.146;11.420;2023-05-19T10:40:20;8.60;;;6.53;;
63784;SDS011;49927;48.146;11.420;2023-05-19T10:43:02;12.45;;;7.68;;
63784;SDS011;49927;48.146;11.420;2023-05-19T10:45:35;9.38;;;6.63;;
63784;SDS011;49927;48.146;11.420;2023-05-19T10:48:09;15.63;;;7.65;;
63784;SDS011;49927;48.146;11.420;2023-05-19T10:50:37;12.02;;;8.70;;
63784;SDS011;49927;48.146;11.420;2023-05-19T10:53:04;12.38;;;7.78;;
63784;SDS011;49927;48.146;11.420;2023-05-19T10:55:46;9.48;;;6.45;;
63784;SDS011;49927;48.146;11.420;2023-05-19T11:01:14;10.02;;;6.65;;
63784;SDS011;49927;48.146;11.420;2023-05-19T11:03:46;11.90;;;7.13;;
63784;SDS011;49927;48.146;11.420;2023-05-19T11:06:19;12.70;;;7.47;;
63784;SDS011;49927;48.146;11.420;2023-05-19T11:08:51;13.90;;;8.05;;
63784;SDS011;49927;48.146;11.420;2023-05-19T11:11:18;13.50;;;8.25;;
63784;SDS011;49927;48.146;11.420;2023-05-19T11:13:45;10.10;;;7.13;;
63784;SDS011;49927;48.146;11.420;2023-05-19T11:16:13;9.98;;;6.70;;
63784;SDS011;49927;48.146;11.420;2023-05-19T11:18:40;10.20;;;7.32;;
63784;SDS011;49927;48.146;11.420;2023-05-19T11:21:06;11.52;;;8.07;;
63784;SDS011;49927;48.146;11.420;2023-05-19T11:23:35;13.75;;;9.10;;
63784;SDS011;49927;48.146;11.420;2023-05-19T11:26:04;10.18;;;7.85;;
63784;SDS011;49927;48.146;11.420;2023-05-19T11:28:32;13.88;;;8.93;;
63784;SDS011;49927;48.146;11.420;2023-05-19T11:30:59;14.27;;;7.95;;
63784;SDS011;49927;48.146;11.420;2023-05-19T11:33:26;10.02;;;7.57;;
63784;SDS011;49927;48.146;11.420;2023-05-19T11:35:53;11.98;;;7.63;;
63784;SDS011;49927;48.146;11.420;2023-05-19T11:38:21;14.90;;;8.48;;
63784;SDS011;49927;48.146;11.420;2023-05-19T11:40:53;11.27;;;7.95;;
63784;SDS011;49927;48.146;11.420;2023-05-19T11:43:21;11.13;;;8.15;;
63784;SDS011;49927;48.146;11.420;2023-05-19T11:45:48;16.10;;;8.68;;
63784;SDS011;49927;48.146;11.420;2023-05-19T11:48:15;13.23;;;8.95;;
63784;SDS011;49927;48.146;11.420;2023-05-19T11:50:42;14.23;;;10.30;;
63784;SDS011;49927;48.146;11.420;2023-05-19T11:53:10;15.60;;;7.85;;
63784;SDS011;49927;48.146;11.420;2023-05-19T11:55:40;12.15;;;8.50;;
63784;SDS011;49927;48.146;11.420;2023-05-19T11:58:15;14.13;;;8.60;;
63784;SDS011;49927;48.146;11.420;2023-05-19T12:00:43;15.68;;;8.35;;
63784;SDS011;49927;48.146;11.420;2023-05-19T12:03:10;12.55;;;7.72;;
63784;SDS011;49927;48.146;11.420;2023-05-19T12:05:37;13.73;;;8.65;;
63784;SDS011;49927;48.146;11.420;2023-05-19T12:08:09;13.82;;;8.30;;
63784;SDS011;49927;48.146;11.420;2023-05-19T12:10:37;12.40;;;8.48;;
63784;SDS011;49927;48.146;11.420;2023-05-19T12:13:04;12.13;;;8.00;;
63784;SDS011;49927;48.146;11.420;2023-05-19T12:15:32;13.93;;;9.13;;
63784;SDS011;49927;48.146;11.420;2023-05-19T12:18:00;12.48;;;8.38;;
63784;SDS011;49927;48.146;11.420;2023-05-19T12:20:27;11.23;;;8.73;;
63784;SDS011;49927;48.146;11.420;2023-05-19T12:22:54;12.93;;;8.35;;
63784;SDS011;49927;48.146;11.420;2023-05-19T12:25:21;13.15;;;7.70;;
63784;SDS011;49927;48.146;11.420;2023-05-19T12:27:48;13.57;;;8.75;;
63784;SDS011;49927;48.146;11.420;2023-05-19T12:30:15;14.27;;;9.18;;
63784;SDS011;49927;48.146;11.420;2023-05-19T12:32:44;12.18;;;8.35;;
63784;SDS011;49927;48.146;11.420;2023-05-19T12:35:11;14.43;;;8.40;;
63784;SDS011;49927;48.146;11.420;2023-05-19T12:37:39;13.65;;;8.27;;
63784;SDS011;49927;48.146;11.420;2023-05-19T12:40:07;17.15;;;9.20;;
63784;SDS011;49927;48.146;11.420;2023-05-19T12:42:42;13.18;;;8.55;;
63784;SDS011;49927;48.146;11.420;2023-05-19T12:45:18;15.27;;;10.00;;
63784;SDS011;49927;48.146;11.420;2023-05-19T12:47:54;16.05;;;9.15;;
63784;SDS011;49927;48.146;11.420;2023-05-19T12:50:28;16.55;;;9.13;;
63784;SDS011;49927;48.146;11.420;2023-05-19T12:52:57;13.90;;;8.35;;
63784;SDS011;49927;48.146;11.420;2023-05-19T12:55:24;15.48;;;9.15;;
63784;SDS011;49927;48.146;11.420;2023-05-19T12:58:05;12.20;;;8.40;;
63784;SDS011;49927;48.146;11.420;2023-05-19T13:00:39;13.43;;;9.30;;
63784;SDS011;49927;48.146;11.420;2023-05-19T13:03:07;13.18;;;8.88;;
63784;SDS011;49927;48.146;11.420;2023-05-19T13:05:41;16.33;;;9.82;;
63784;SDS011;49927;48.146;11.420;2023-05-19T13:08:09;15.63;;;10.27;;
63784;SDS011;49927;48.146;11.420;2023-05-19T13:10:37;16.85;;;9.73;;
63784;SDS011;49927;48.146;11.420;2023-05-19T13:13:05;11.77;;;8.63;;
63784;SDS011;49927;48.146;11.420;2023-05-19T13:15:33;15.27;;;9.70;;
63784;SDS011;49927;48.146;11.420;2023-05-19T13:18:06;15.73;;;9.82;;
63784;SDS011;49927;48.146;11.420;2023-05-19T13:20:36;16.00;;;8.93;;
63784;SDS011;49927;48.146;11.420;2023-05-19T13:23:03;13.02;;;9.00;;
63784;SDS011;49927;48.146;11.420;2023-05-19T13:25:30;15.23;;;9.45;;
63784;SDS011;49927;48.146;11.420;2023-05-19T13:27:58;14.88;;;9.38;;
63784;SDS011;49927;48.146;11.420;2023-05-19T13:30:25;16.23;;;8.95;;
63784;SDS011;49927;48.146;11.420;2023-05-19T13:32:52;13.75;;;9.18;;
63784;SDS011;49927;48.146;11.420;2023-05-19T13:35:20;13.15;;;8.25;;
63784;SDS011;49927;48.146;11.420;2023-05-19T13:37:56;13.88;;;8.48;;
63784;SDS011;49927;48.146;11.420;2023-05-19T13:40:23;16.75;;;10.68;;
63784;SDS011;49927;48.146;11.420;2023-05-19T13:42:49;11.07;;;8.32;;
63784;SDS011;49927;48.146;11.420;2023-05-19T13:45:16;13.63;;;8.98;;
63784;SDS011;49927;48.146;11.420;2023-05-19T13:47:43;12.23;;;8.27;;
63784;SDS011;49927;48.146;11.420;2023-05-19T13:50:10;14.15;;;8.80;;
63784;SDS011;49927;48.146;11.420;2023-05-19T13:52:38;11.55;;;8.38;;
63784;SDS011;49927;48.146;11.420;2023-05-19T13:55:05;13.52;;;8.80;;
63784;SDS011;49927;48.146;11.420;2023-05-19T13:57:32;13.20;;;8.63;;
63784;SDS011;49927;48.146;11.420;2023-05-19T13:59:59;15.07;;;8.30;;
63784;SDS011;49927;48.146;11.420;2023-05-19T14:02:29;9.13;;;6.95;;
63784;SDS011;49927;48.146;11.420;2023-05-19T14:04:56;10.95;;;7.40;;
63784;SDS011;49927;48.146;11.420;2023-05-19T14:07:23;11.40;;;7.35;;
63784;SDS011;49927;48.146;11.420;2023-05-19T14:09:51;10.23;;;7.90;;
63784;SDS011;49927;48.146;11.420;2023-05-19T14:12:17;10.75;;;7.10;;
63784;SDS011;49927;48.146;11.420;2023-05-19T14:14:48;12.57;;;8.52;;
63784;SDS011;49927;48.146;11.420;2023-05-19T14:17:15;14.70;;;8.15;;
63784;SDS011;49927;48.146;11.420;2023-05-19T14:19:42;13.20;;;8.27;;
63784;SDS011;49927;48.146;11.420;2023-05-19T14:22:08;12.30;;;8.18;;
63784;SDS011;49927;48.146;11.420;2023-05-19T14:24:35;13.55;;;8.82;;
63784;SDS011;49927;48.146;11.420;2023-05-19T14:27:03;11.77;;;8.10;;
63784;SDS011;49927;48.146;11.420;2023-05-19T14:29:30;12.57;;;8.30;;
63784;SDS011;49927;48.146;11.420;2023-05-19T14:31:57;12.93;;;8.20;;
63784;SDS011;49927;48.146;11.420;2023-05-19T14:34:24;11.30;;;8.32;;
63784;SDS011;49927;48.146;11.420;2023-05-19T14:36:50;11.75;;;8.50;;
63784;SDS011;49927;48.146;11.420;2023-05-19T14:39:17;13.80;;;8.73;;
63784;SDS011;49927;48.146;11.420;2023-05-19T14:41:44;12.10;;;8.05;;